createdAt,value
2022-11-04T00:01:23.196Z,61.98
2022-11-04T00:03:49.640Z,61.80
2022-11-04T00:06:25.815Z,61.82
2022-11-04T00:08:55.716Z,61.43
2022-11-04T00:11:40.891Z,61.77
2022-11-04T00:14:07.527Z,61.90
2022-11-04T00:16:52.719Z,62.15
2022-11-04T00:19:19.037Z,62.10
2022-11-04T00:22:04.177Z,62.12
2022-11-04T00:24:42.274Z,62.08
2022-11-04T00:27:30.256Z,61.89
2022-11-04T00:29:56.638Z,62.04
2022-11-04T00:32:41.352Z,62.19
2022-11-04T00:35:07.933Z,62.04
2022-11-04T00:37:37.829Z,62.05
2022-11-04T00:40:04.205Z,62.10
2022-11-04T00:42:30.536Z,62.15
2022-11-04T00:44:56.905Z,62.16
2022-11-04T00:47:23.484Z,62.35
2022-11-04T00:49:49.823Z,62.24
2022-11-04T00:52:16.129Z,62.12
2022-11-04T00:54:42.432Z,62.09
2022-11-04T00:57:09.351Z,62.25
2022-11-04T00:59:35.660Z,62.20
2022-11-04T01:02:02.043Z,62.21
2022-11-04T01:04:28.420Z,62.31
2022-11-04T01:06:54.720Z,62.21
2022-11-04T01:09:21.028Z,62.20
2022-11-04T01:11:47.408Z,62.17
2022-11-04T01:14:13.711Z,62.20
2022-11-04T01:16:40.090Z,62.37
2022-11-04T01:19:06.712Z,62.34
2022-11-04T01:21:33.045Z,62.23
2022-11-04T01:23:59.433Z,62.42
2022-11-04T01:26:25.988Z,62.49
2022-11-04T01:28:52.875Z,62.25
2022-11-04T01:31:21.445Z,62.23
2022-11-04T01:33:47.836Z,62.48
2022-11-04T01:36:14.311Z,62.19
2022-11-04T01:38:40.631Z,62.06
2022-11-04T01:41:07.208Z,62.33
2022-11-04T01:43:43.336Z,61.98
2022-11-04T01:46:09.646Z,62.20
2022-11-04T01:48:36.070Z,62.29
2022-11-04T01:51:02.393Z,62.25
2022-11-04T01:53:29.941Z,62.21
2022-11-04T01:55:56.749Z,62.31
2022-11-04T01:58:23.460Z,62.17
2022-11-04T02:00:49.788Z,62.11
2022-11-04T02:03:17.139Z,62.08
2022-11-04T02:05:43.515Z,62.10
2022-11-04T02:08:09.940Z,62.08
2022-11-04T02:10:37.484Z,62.22
2022-11-04T02:13:04.151Z,62.24
2022-11-04T02:15:36.271Z,61.99
2022-11-04T02:18:05.952Z,62.14
2022-11-04T02:20:44.419Z,62.20
2022-11-04T02:23:19.745Z,62.30
2022-11-04T02:26:06.128Z,62.07
2022-11-04T02:28:44.919Z,61.90
2022-11-04T02:31:26.291Z,62.10
2022-11-04T02:33:53.902Z,61.86
2022-11-04T02:36:22.507Z,62.21
2022-11-04T02:38:51.238Z,62.12
2022-11-04T02:41:21.990Z,61.86
2022-11-04T02:43:50.663Z,61.87
2022-11-04T02:46:22.245Z,62.04
2022-11-04T02:48:53.871Z,61.99
2022-11-04T02:51:25.730Z,62.10
2022-11-04T02:54:10.816Z,61.99
2022-11-04T02:56:41.136Z,62.19
2022-11-04T02:59:08.478Z,61.82
2022-11-04T03:01:35.297Z,61.88
2022-11-04T03:04:03.415Z,61.95
2022-11-04T03:06:29.732Z,61.82
2022-11-04T03:08:56.050Z,62.14
2022-11-04T03:11:23.097Z,61.80
2022-11-04T03:13:57.760Z,61.78
2022-11-04T03:16:26.576Z,61.86
2022-11-04T03:19:08.039Z,61.91
2022-11-04T03:21:35.352Z,62.01
2022-11-04T03:24:01.837Z,61.97
2022-11-04T03:26:47.005Z,61.95
2022-11-04T03:29:13.271Z,61.87
2022-11-04T03:31:44.052Z,61.95
2022-11-04T03:34:10.351Z,61.99
2022-11-04T03:36:36.673Z,61.81
2022-11-04T03:39:02.992Z,61.58
2022-11-04T03:41:34.433Z,61.86
2022-11-04T03:44:00.802Z,61.82
2022-11-04T03:46:27.178Z,61.68
2022-11-04T03:48:53.479Z,61.53
2022-11-04T03:51:19.804Z,61.49
2022-11-04T03:53:46.120Z,61.79
2022-11-04T03:56:31.232Z,61.72
2022-11-04T03:58:58.275Z,61.47
2022-11-04T04:01:36.633Z,61.34
2022-11-04T04:04:10.143Z,61.40
2022-11-04T04:06:36.459Z,61.50
2022-11-04T04:09:05.591Z,61.34
2022-11-04T04:11:50.713Z,61.44
2022-11-04T04:14:41.411Z,61.29
2022-11-04T04:17:21.359Z,61.19
2022-11-04T04:19:54.632Z,61.40
2022-11-04T04:22:22.558Z,61.11
2022-11-04T04:25:07.702Z,61.02
2022-11-04T04:27:34.070Z,61.33
2022-11-04T04:30:01.497Z,61.12
2022-11-04T04:32:28.271Z,61.15
2022-11-04T04:35:14.549Z,61.47
2022-11-04T04:37:40.883Z,61.15
2022-11-04T04:40:25.953Z,61.06
2022-11-04T04:43:11.434Z,61.11
2022-11-04T04:45:38.321Z,61.21
2022-11-04T04:48:04.635Z,61.09
2022-11-04T04:50:31.573Z,61.18
2022-11-04T04:52:58.011Z,61.07
2022-11-04T04:55:24.319Z,61.12
2022-11-04T04:57:50.632Z,60.91
2022-11-04T05:00:17.735Z,61.05
2022-11-04T05:02:44.181Z,61.04
2022-11-04T05:05:10.802Z,61.28
2022-11-04T05:07:37.155Z,61.36
2022-11-04T05:10:03.682Z,61.34
2022-11-04T05:12:48.471Z,61.35
2022-11-04T05:15:14.787Z,61.11
2022-11-04T05:17:41.105Z,61.02
2022-11-04T05:20:07.741Z,61.10
2022-11-04T05:22:34.068Z,61.31
2022-11-04T05:25:00.398Z,61.06
2022-11-04T05:27:26.704Z,61.12
2022-11-04T05:29:53.030Z,61.03
2022-11-04T05:32:19.349Z,61.10
2022-11-04T05:34:45.665Z,60.94
2022-11-04T05:37:11.969Z,61.02
2022-11-04T05:39:38.292Z,60.92
2022-11-04T05:42:04.595Z,60.92
2022-11-04T05:44:30.915Z,61.30
2022-11-04T05:46:57.219Z,61.17
2022-11-04T05:49:23.544Z,61.33
2022-11-04T05:51:49.900Z,61.27
2022-11-04T05:54:16.216Z,61.05
2022-11-04T05:56:42.524Z,61.05
2022-11-04T05:59:08.844Z,61.15
2022-11-04T06:01:36.036Z,61.16
2022-11-04T06:04:02.554Z,60.95
2022-11-04T06:06:29.691Z,61.01
2022-11-04T06:08:56.526Z,60.78
2022-11-04T06:11:22.835Z,60.97
2022-11-04T06:13:49.137Z,61.14
2022-11-04T06:16:15.453Z,61.28
2022-11-04T06:18:41.783Z,60.91
2022-11-04T06:21:20.069Z,61.13
2022-11-04T06:23:46.377Z,60.91
2022-11-04T06:26:12.697Z,61.24
2022-11-04T06:28:39.137Z,61.18
2022-11-04T06:31:06.019Z,60.98
2022-11-04T06:33:36.548Z,60.90
2022-11-04T06:36:03.637Z,61.16
2022-11-04T06:38:30.539Z,60.97
2022-11-04T06:40:56.976Z,61.16
2022-11-04T06:43:23.328Z,60.98
2022-11-04T06:45:53.317Z,60.98
2022-11-04T06:48:19.636Z,61.24
2022-11-04T06:50:45.949Z,60.88
2022-11-04T06:53:12.291Z,61.04
2022-11-04T06:55:38.613Z,61.20
2022-11-04T06:58:04.918Z,60.92
2022-11-04T07:00:31.265Z,61.07
2022-11-04T07:02:57.605Z,61.02
2022-11-04T07:05:23.963Z,61.29
2022-11-04T07:07:50.335Z,61.29
2022-11-04T07:10:17.146Z,61.10
2022-11-04T07:12:43.628Z,61.28
2022-11-04T07:15:10.103Z,61.05
2022-11-04T07:17:36.404Z,60.99
2022-11-04T07:20:02.899Z,60.95
2022-11-04T07:22:29.203Z,61.12
2022-11-04T07:24:55.517Z,60.94
2022-11-04T07:27:21.864Z,61.02
2022-11-04T07:29:48.172Z,61.09
2022-11-04T07:32:14.476Z,61.00
2022-11-04T07:34:40.816Z,61.28
2022-11-04T07:37:07.135Z,61.00
2022-11-04T07:39:33.449Z,61.05
2022-11-04T07:41:59.917Z,61.25
2022-11-04T07:44:26.351Z,61.20
2022-11-04T07:46:52.700Z,61.20
2022-11-04T07:49:19.013Z,61.06
2022-11-04T07:51:45.410Z,61.11
2022-11-04T07:54:11.732Z,60.98
2022-11-04T07:56:38.046Z,61.08
2022-11-04T07:59:07.390Z,60.96
2022-11-04T08:01:33.745Z,61.03
2022-11-04T08:04:00.152Z,60.99
2022-11-04T08:06:26.463Z,61.16
2022-11-04T08:08:54.027Z,61.06
2022-11-04T08:11:21.457Z,60.94
2022-11-04T08:13:47.785Z,61.38
2022-11-04T08:16:15.184Z,61.31
2022-11-04T08:18:41.604Z,61.26
2022-11-04T08:21:07.990Z,61.34
2022-11-04T08:23:34.305Z,61.33
2022-11-04T08:26:00.617Z,61.27
2022-11-04T08:28:27.126Z,61.42
2022-11-04T08:31:01.317Z,61.25
2022-11-04T08:33:27.651Z,61.45
2022-11-04T08:35:54.151Z,61.32
2022-11-04T08:38:20.483Z,61.47
2022-11-04T08:40:46.818Z,61.46
2022-11-04T08:43:13.155Z,61.40
2022-11-04T08:45:40.092Z,61.51
2022-11-04T08:48:06.676Z,61.45
2022-11-04T08:50:33.313Z,61.62
2022-11-04T08:52:59.624Z,61.51
2022-11-04T08:55:28.197Z,61.51
2022-11-04T08:57:54.504Z,61.41
2022-11-04T09:00:21.058Z,61.37
2022-11-04T09:02:47.566Z,61.34
2022-11-04T09:05:15.363Z,61.42
2022-11-04T09:07:42.062Z,61.50
2022-11-04T09:10:08.931Z,61.41
2022-11-04T09:12:35.249Z,61.64
2022-11-04T09:15:01.831Z,61.68
2022-11-04T09:17:28.144Z,61.35
2022-11-04T09:19:54.493Z,61.37
2022-11-04T09:22:20.831Z,61.55
2022-11-04T09:24:47.163Z,61.47
2022-11-04T09:27:13.487Z,61.38
2022-11-04T09:29:41.030Z,61.66
2022-11-04T09:32:07.672Z,61.48
2022-11-04T09:34:34.001Z,61.62
2022-11-04T09:37:00.304Z,61.30
2022-11-04T09:39:26.868Z,61.38
2022-11-04T09:41:56.095Z,61.37
2022-11-04T09:44:27.136Z,61.51
2022-11-04T09:46:54.697Z,61.45
2022-11-04T09:49:21.024Z,61.35
2022-11-04T09:51:54.293Z,61.13
2022-11-04T09:54:25.377Z,61.23
2022-11-04T09:56:51.864Z,61.27
2022-11-04T09:59:23.269Z,60.98
2022-11-04T10:01:53.072Z,61.01
2022-11-04T10:04:22.588Z,61.03
2022-11-04T10:07:06.360Z,61.00
2022-11-04T10:09:35.926Z,60.99
2022-11-04T10:12:05.813Z,61.07
2022-11-04T10:14:58.066Z,60.84
2022-11-04T10:17:34.116Z,61.06
2022-11-04T10:20:03.969Z,61.10
2022-11-04T10:22:35.102Z,61.24
2022-11-04T10:25:22.620Z,61.18
2022-11-04T10:27:48.931Z,61.16
2022-11-04T10:30:19.632Z,61.41
2022-11-04T10:33:01.339Z,61.43
2022-11-04T10:35:38.102Z,61.36
2022-11-04T10:38:30.509Z,61.11
2022-11-04T10:40:57.143Z,61.30
2022-11-04T10:43:29.451Z,61.20
2022-11-04T10:46:01.894Z,61.03
2022-11-04T10:48:29.547Z,60.94
2022-11-04T10:50:56.259Z,61.15
2022-11-04T10:53:29.537Z,61.16
2022-11-04T10:56:03.632Z,61.18
2022-11-04T10:58:35.365Z,61.28
2022-11-04T11:01:21.815Z,61.34
2022-11-04T11:03:48.229Z,61.25
2022-11-04T11:06:23.995Z,61.13
2022-11-04T11:08:50.303Z,61.57
2022-11-04T11:11:16.800Z,61.74
2022-11-04T11:13:43.934Z,61.72
2022-11-04T11:16:20.067Z,62.24
2022-11-04T11:18:50.958Z,62.57
2022-11-04T11:21:21.384Z,62.46
2022-11-04T11:23:48.458Z,62.43
2022-11-04T11:26:18.628Z,62.25
2022-11-04T11:28:48.578Z,62.11
2022-11-04T11:31:23.337Z,61.97
2022-11-04T11:33:51.045Z,62.64
2022-11-04T11:36:21.355Z,62.36
2022-11-04T11:38:53.800Z,62.75
2022-11-04T11:41:25.328Z,62.84
2022-11-04T11:43:52.690Z,63.00
2022-11-04T11:46:22.527Z,63.21
2022-11-04T11:48:52.511Z,63.21
2022-11-04T11:51:31.549Z,63.51
2022-11-04T11:57:14.673Z,63.66
2022-11-04T12:02:44.405Z,63.97
2022-11-04T12:10:56.311Z,64.30
2022-11-04T12:13:29.007Z,64.63
2022-11-04T12:16:04.288Z,64.23
2022-11-04T12:18:47.486Z,64.02
2022-11-04T12:21:15.961Z,64.05
2022-11-04T12:23:45.587Z,63.66
2022-11-04T12:26:30.292Z,63.46
2022-11-04T12:29:03.119Z,63.60
2022-11-04T12:31:29.371Z,63.90
2022-11-04T12:33:59.558Z,63.37
2022-11-04T12:36:44.662Z,63.65
2022-11-04T12:39:13.695Z,63.54
2022-11-04T12:42:06.848Z,63.89
2022-11-04T12:44:37.292Z,63.66
2022-11-04T12:47:07.280Z,63.52
2022-11-04T12:49:45.836Z,63.40
2022-11-04T12:52:21.342Z,63.78
2022-11-04T12:54:53.993Z,63.83
2022-11-04T12:57:35.463Z,63.39
2022-11-04T13:00:09.177Z,63.68
2022-11-04T13:02:45.985Z,63.24
2022-11-04T13:05:18.629Z,63.09
2022-11-04T13:07:46.803Z,63.48
2022-11-04T13:10:18.811Z,63.53
2022-11-04T13:12:45.139Z,63.40
2022-11-04T13:15:14.452Z,63.74
2022-11-04T13:17:40.775Z,63.82
2022-11-04T13:20:14.004Z,64.24
2022-11-04T13:22:41.820Z,64.34
2022-11-04T13:25:15.861Z,64.51
2022-11-04T13:27:45.051Z,64.33
2022-11-04T13:30:29.692Z,64.35
2022-11-04T13:33:09.084Z,64.63
2022-11-04T13:35:46.180Z,64.38
2022-11-04T13:38:14.188Z,64.21
2022-11-04T13:40:42.685Z,64.18
2022-11-04T13:43:33.356Z,64.14
2022-11-04T13:45:59.683Z,63.61
2022-11-04T13:48:26.621Z,63.71
2022-11-04T13:51:06.379Z,63.97
2022-11-04T13:53:48.585Z,64.05
2022-11-04T13:56:33.194Z,63.90
2022-11-04T13:59:06.628Z,63.96
2022-11-04T14:01:33.698Z,63.56
2022-11-04T14:04:02.929Z,63.78
2022-11-04T14:06:48.934Z,63.99
2022-11-04T14:09:32.080Z,63.74
2022-11-04T14:12:10.553Z,63.58
2022-11-04T14:14:56.324Z,63.74
2022-11-04T14:17:34.816Z,63.49
2022-11-04T14:20:11.888Z,63.69
2022-11-04T14:22:43.985Z,63.69
2022-11-04T14:25:24.293Z,63.60
2022-11-04T14:27:51.453Z,63.57
2022-11-04T14:30:28.115Z,63.72
2022-11-04T14:32:58.865Z,63.52
2022-11-04T14:35:51.525Z,63.55
2022-11-04T14:38:24.190Z,63.62
2022-11-04T14:40:52.174Z,63.63
2022-11-04T14:43:19.522Z,63.72
2022-11-04T14:45:45.837Z,63.76
2022-11-04T14:48:15.781Z,64.04
2022-11-04T14:50:43.424Z,63.95
2022-11-04T14:53:12.371Z,63.98
2022-11-04T14:55:38.878Z,64.24
2022-11-04T14:58:40.854Z,64.26
2022-11-04T15:01:11.871Z,64.11
2022-11-04T15:06:47.394Z,64.38
2022-11-04T15:09:22.445Z,64.39
2022-11-04T15:12:07.547Z,64.34
2022-11-04T15:14:33.873Z,64.18
2022-11-04T15:17:01.753Z,63.93
2022-11-04T15:19:32.008Z,63.76
2022-11-04T15:21:58.904Z,63.76
2022-11-04T15:24:25.252Z,63.67
2022-11-04T15:26:51.748Z,63.41
2022-11-04T15:29:18.272Z,63.54
2022-11-04T15:31:51.806Z,63.78
2022-11-04T15:34:18.125Z,63.82
2022-11-04T15:36:44.444Z,63.88
2022-11-04T15:39:21.247Z,63.55
2022-11-04T15:42:06.338Z,63.93
2022-11-04T15:44:33.399Z,63.78
2022-11-04T15:47:00.723Z,64.12
2022-11-04T15:49:27.890Z,63.99
2022-11-04T15:52:06.956Z,63.83
2022-11-04T15:54:34.452Z,63.70
2022-11-04T15:57:01.504Z,63.75
2022-11-04T15:59:32.311Z,64.12
2022-11-04T16:01:58.775Z,63.93
2022-11-04T16:04:25.514Z,63.90
2022-11-04T16:07:20.645Z,64.03
2022-11-04T16:09:50.925Z,63.94
2022-11-04T16:12:27.413Z,63.99
2022-11-04T16:14:54.441Z,63.91
2022-11-04T16:17:20.944Z,64.01
2022-11-04T16:20:00.617Z,63.96
2022-11-04T16:22:30.875Z,63.95
2022-11-04T16:24:57.221Z,64.10
2022-11-04T16:27:23.561Z,63.92
2022-11-04T16:30:02.022Z,63.95
2022-11-04T16:32:29.040Z,63.76
2022-11-04T16:34:59.220Z,64.13
2022-11-04T16:37:26.006Z,63.88
2022-11-04T16:39:52.339Z,63.93
2022-11-04T16:42:18.651Z,63.38
2022-11-04T16:44:48.410Z,63.66
2022-11-04T16:47:14.725Z,63.99
2022-11-04T16:49:41.205Z,64.01
2022-11-04T16:52:09.220Z,63.97
2022-11-04T16:54:35.549Z,63.90
2022-11-04T16:57:05.507Z,64.01
2022-11-04T16:59:31.837Z,63.99
2022-11-04T17:01:58.286Z,64.05
2022-11-04T17:04:24.729Z,63.98
2022-11-04T17:06:51.045Z,63.97
2022-11-04T17:09:19.281Z,63.77
2022-11-04T17:11:45.649Z,63.88
2022-11-04T17:14:11.977Z,63.72
2022-11-04T17:16:38.297Z,63.73
2022-11-04T17:19:04.618Z,63.93
2022-11-04T17:21:30.931Z,63.74
2022-11-04T17:23:57.292Z,63.96
2022-11-04T17:26:23.600Z,63.57
2022-11-04T17:28:49.925Z,63.33
2022-11-04T17:31:21.915Z,63.53
2022-11-04T17:33:48.238Z,63.31
2022-11-04T17:36:15.528Z,63.19
2022-11-04T17:38:41.831Z,63.12
2022-11-04T17:41:26.732Z,63.49
2022-11-04T17:44:01.876Z,63.15
2022-11-04T17:46:34.909Z,63.21
2022-11-04T17:49:01.761Z,63.44
2022-11-04T17:51:28.154Z,63.30
2022-11-04T17:53:54.476Z,63.24
2022-11-04T17:56:21.246Z,63.54
2022-11-04T17:58:47.684Z,63.46
2022-11-04T18:01:14.448Z,62.93
2022-11-04T18:03:41.010Z,63.00
2022-11-04T18:06:07.854Z,63.17
2022-11-04T18:08:34.535Z,63.32
2022-11-04T18:11:01.204Z,63.14
2022-11-04T18:13:27.573Z,62.97
2022-11-04T18:15:53.893Z,62.96
2022-11-04T18:18:20.202Z,62.99
2022-11-04T18:20:46.589Z,63.03
2022-11-04T18:23:13.033Z,63.18
2022-11-04T18:25:40.024Z,63.02
2022-11-04T18:28:06.324Z,62.92
2022-11-04T18:30:32.644Z,62.84
2022-11-04T18:32:58.968Z,62.95
2022-11-04T18:35:25.344Z,63.01
2022-11-04T18:37:51.652Z,63.05
2022-11-04T18:40:18.046Z,63.00
2022-11-04T18:42:44.404Z,63.20
2022-11-04T18:45:10.731Z,63.02
2022-11-04T18:47:37.268Z,63.15
2022-11-04T18:50:03.612Z,63.26
2022-11-04T18:52:29.919Z,63.11
2022-11-04T18:54:56.241Z,63.25
2022-11-04T18:57:22.554Z,62.97
2022-11-04T18:59:48.897Z,62.90
2022-11-04T19:02:16.200Z,62.91
2022-11-04T19:04:42.639Z,63.04
2022-11-04T19:07:08.981Z,62.85
2022-11-04T19:09:50.719Z,62.92
2022-11-04T19:12:35.844Z,62.82
2022-11-04T19:15:04.036Z,62.90
2022-11-04T19:17:30.451Z,62.57
2022-11-04T19:19:56.811Z,62.90
2022-11-04T19:22:23.128Z,62.81
2022-11-04T19:24:49.489Z,62.53
2022-11-04T19:27:17.774Z,62.58
2022-11-04T19:29:44.093Z,62.79
2022-11-04T19:32:14.371Z,62.34
2022-11-04T19:34:41.092Z,62.58
2022-11-04T19:37:07.404Z,62.26
2022-11-04T19:39:33.700Z,62.39
2022-11-04T19:42:32.543Z,62.26
2022-11-04T19:44:58.859Z,62.28
2022-11-04T19:47:25.189Z,62.36
2022-11-04T19:49:51.610Z,62.68
2022-11-04T19:52:18.519Z,62.59
2022-11-04T19:54:44.891Z,62.26
2022-11-04T19:57:11.233Z,62.57
2022-11-04T19:59:37.555Z,62.29
2022-11-04T20:02:04.972Z,62.13
2022-11-04T20:04:31.403Z,62.28
2022-11-04T20:06:57.715Z,62.30
2022-11-04T20:09:25.962Z,62.39
2022-11-04T20:12:11.043Z,62.19
2022-11-04T20:14:37.380Z,62.10
2022-11-04T20:17:05.036Z,62.25
2022-11-04T20:19:31.380Z,62.34
2022-11-04T20:21:57.890Z,62.34
2022-11-04T20:24:25.255Z,62.46
2022-11-04T20:26:51.638Z,62.16
2022-11-04T20:29:17.962Z,62.36
2022-11-04T20:31:44.289Z,62.24
2022-11-04T20:34:10.957Z,62.23
2022-11-04T20:36:37.283Z,62.04
2022-11-04T20:39:04.436Z,62.61
2022-11-04T20:41:30.741Z,62.19
2022-11-04T20:43:57.064Z,62.54
2022-11-04T20:46:26.664Z,62.29
2022-11-04T20:48:52.976Z,62.49
2022-11-04T20:51:20.181Z,62.49
2022-11-04T20:53:47.304Z,62.35
2022-11-04T20:56:14.443Z,62.19
2022-11-04T20:58:41.156Z,62.37
2022-11-04T21:01:08.743Z,62.39
2022-11-04T21:03:35.090Z,62.51
2022-11-04T21:06:01.433Z,62.23
2022-11-04T21:08:27.804Z,62.48
2022-11-04T21:10:54.972Z,62.47
2022-11-04T21:13:21.308Z,62.25
2022-11-04T21:15:53.358Z,62.52
2022-11-04T21:18:19.685Z,62.39
2022-11-04T21:20:46.068Z,62.28
2022-11-04T21:23:12.598Z,62.53
2022-11-04T21:25:39.733Z,62.36
2022-11-04T21:28:06.051Z,62.17
2022-11-04T21:30:35.702Z,62.42
2022-11-04T21:33:02.026Z,62.50
2022-11-04T21:35:28.357Z,62.35
2022-11-04T21:37:54.775Z,62.55
2022-11-04T21:40:21.119Z,62.38
2022-11-04T21:42:47.645Z,62.09
2022-11-04T21:45:14.320Z,62.23
2022-11-04T21:47:40.632Z,62.45
2022-11-04T21:50:07.097Z,62.56
2022-11-04T21:52:33.425Z,62.21
2022-11-04T21:54:59.741Z,62.51
2022-11-04T21:57:26.061Z,62.53
2022-11-04T21:59:52.376Z,62.29
2022-11-04T22:02:18.822Z,62.39
2022-11-04T22:04:45.249Z,62.10
2022-11-04T22:07:11.549Z,62.42
2022-11-04T22:09:37.907Z,62.19
2022-11-04T22:12:04.238Z,62.36
2022-11-04T22:14:30.571Z,62.50
2022-11-04T22:16:56.902Z,62.28
2022-11-04T22:19:23.212Z,62.29
2022-11-04T22:21:49.789Z,62.52
2022-11-04T22:24:16.609Z,62.25
2022-11-04T22:26:42.913Z,62.47
2022-11-04T22:29:09.279Z,62.40
2022-11-04T22:31:39.768Z,62.24
2022-11-04T22:34:06.091Z,62.40
2022-11-04T22:36:32.579Z,62.27
2022-11-04T22:38:59.135Z,62.51
2022-11-04T22:41:26.303Z,62.30
2022-11-04T22:43:52.616Z,62.33
2022-11-04T22:46:19.850Z,62.58
2022-11-04T22:48:46.160Z,62.62
2022-11-04T22:51:12.604Z,62.51
2022-11-04T22:53:38.912Z,62.46
2022-11-04T22:56:05.538Z,62.52
2022-11-04T22:58:31.847Z,62.59
2022-11-04T23:00:58.999Z,62.55
2022-11-04T23:03:25.416Z,62.57
2022-11-04T23:05:55.621Z,62.44
2022-11-04T23:08:21.996Z,62.61
2022-11-04T23:11:06.783Z,62.63
2022-11-04T23:13:51.608Z,62.50
2022-11-04T23:16:36.457Z,62.33
2022-11-04T23:19:02.830Z,62.56
2022-11-04T23:21:47.585Z,62.33
2022-11-04T23:24:32.366Z,62.54
2022-11-04T23:26:58.674Z,62.33
2022-11-04T23:29:43.581Z,62.31
2022-11-04T23:32:09.903Z,62.55
2022-11-04T23:34:54.737Z,62.49
2022-11-04T23:37:21.049Z,62.57
2022-11-04T23:39:47.901Z,62.40
2022-11-04T23:42:17.230Z,62.25
2022-11-04T23:45:02.643Z,62.35
2022-11-04T23:47:51.562Z,62.36
2022-11-04T23:50:36.302Z,62.39
2022-11-04T23:53:21.120Z,62.54
2022-11-04T23:56:05.983Z,62.37
2022-11-04T23:58:50.884Z,62.51
